createdAt,value
2018-01-23T00:02:15.966Z,59.58
2018-01-23T00:04:44.287Z,64.32
2018-01-23T00:07:12.645Z,67.65
2018-01-23T00:09:40.969Z,87.85
2018-01-23T00:12:09.313Z,59.47
2018-01-23T00:14:37.677Z,72.95
2018-01-23T00:17:06.021Z,65.55
2018-01-23T00:19:34.346Z,83.05
2018-01-23T00:22:02.690Z,81.28
2018-01-23T00:24:31.019Z,67.30
2018-01-23T00:26:59.366Z,56.83
2018-01-23T00:29:27.686Z,72.10
2018-01-23T00:31:56.114Z,67.57
2018-01-23T00:34:24.491Z,66.62
2018-01-23T00:36:52.833Z,66.95
2018-01-23T00:39:21.163Z,83.90
2018-01-23T00:41:49.513Z,75.40
2018-01-23T00:44:17.846Z,69.10
2018-01-23T00:46:46.189Z,54.92
2018-01-23T00:49:14.549Z,74.68
2018-01-23T00:51:42.930Z,62.47
2018-01-23T00:54:11.309Z,61.88
2018-01-23T00:56:39.677Z,68.05
2018-01-23T00:59:08.006Z,73.43
2018-01-23T01:01:36.353Z,76.70
2018-01-23T01:04:04.677Z,55.50
2018-01-23T01:06:33.085Z,89.20
2018-01-23T01:09:01.410Z,76.22
2018-01-23T01:11:29.753Z,56.50
2018-01-23T01:13:58.118Z,71.50
2018-01-23T01:16:26.493Z,64.55
2018-01-23T01:18:54.874Z,81.03
2018-01-23T01:21:23.233Z,63.72
2018-01-23T01:23:51.629Z,58.83
2018-01-23T01:26:19.970Z,63.05
2018-01-23T01:28:48.293Z,53.42
2018-01-23T01:31:16.642Z,59.13
2018-01-23T01:33:44.965Z,54.00
2018-01-23T01:36:13.410Z,66.12
2018-01-23T01:38:41.738Z,67.65
2018-01-23T01:41:10.057Z,55.55
2018-01-23T01:43:38.401Z,57.10
2018-01-23T01:46:06.813Z,73.07
2018-01-23T01:48:47.069Z,63.92
2018-01-23T01:51:15.396Z,53.13
2018-01-23T01:53:43.738Z,37.75
2018-01-23T01:56:12.101Z,55.08
2018-01-23T01:58:40.477Z,82.22
2018-01-23T02:01:08.802Z,93.53
2018-01-23T02:03:37.153Z,79.82
2018-01-23T02:06:05.477Z,57.65
2018-01-23T02:08:33.849Z,49.00
2018-01-23T02:11:02.178Z,67.10
2018-01-23T02:13:30.526Z,70.72
2018-01-23T02:15:58.849Z,66.93
2018-01-23T02:18:27.208Z,68.65
2018-01-23T02:20:55.565Z,47.70
2018-01-23T02:23:23.910Z,44.10
2018-01-23T02:25:52.233Z,53.83
2018-01-23T02:28:20.577Z,48.63
2018-01-23T02:30:48.973Z,59.25
2018-01-23T02:33:17.321Z,62.62
2018-01-23T02:35:45.649Z,87.12
2018-01-23T02:38:13.989Z,74.53
2018-01-23T02:40:42.377Z,42.65
2018-01-23T02:43:10.758Z,53.78
2018-01-23T02:45:39.074Z,41.67
2018-01-23T02:48:07.509Z,77.50
2018-01-23T02:50:35.835Z,50.70
2018-01-23T02:53:04.173Z,37.05
2018-01-23T02:55:32.501Z,62.88
2018-01-23T02:58:00.850Z,47.35
2018-01-23T03:00:29.177Z,48.55
2018-01-23T03:02:57.522Z,52.85
2018-01-23T03:05:25.850Z,41.05
2018-01-23T03:07:54.197Z,38.38
2018-01-23T03:10:22.593Z,69.37
2018-01-23T03:12:50.937Z,43.45
2018-01-23T03:15:19.348Z,31.62
2018-01-23T03:17:47.725Z,39.95
2018-01-23T03:20:16.081Z,66.85
2018-01-23T03:22:44.426Z,41.65
2018-01-23T03:25:12.737Z,40.60
2018-01-23T03:27:41.137Z,34.63
2018-01-23T03:30:09.453Z,50.28
2018-01-23T03:32:37.801Z,48.55
2018-01-23T03:35:06.118Z,37.25
2018-01-23T03:37:34.483Z,51.88
2018-01-23T03:40:02.813Z,35.08
2018-01-23T03:42:31.189Z,40.38
2018-01-23T03:44:59.534Z,44.92
2018-01-23T03:47:27.945Z,48.08
2018-01-23T03:49:56.289Z,46.40
2018-01-23T03:52:24.705Z,47.20
2018-01-23T03:54:53.049Z,49.95
2018-01-23T03:57:21.369Z,49.28
2018-01-23T03:59:49.713Z,30.00
2018-01-23T04:02:18.043Z,45.60
2018-01-23T04:04:46.385Z,56.20
2018-01-23T04:07:14.709Z,57.13
2018-01-23T04:09:43.053Z,69.53
2018-01-23T04:12:11.373Z,28.40
2018-01-23T04:14:39.717Z,45.17
2018-01-23T04:17:08.069Z,56.95
2018-01-23T04:19:36.444Z,38.58
2018-01-23T04:22:04.769Z,40.45
2018-01-23T04:24:33.122Z,51.17
2018-01-23T04:27:01.474Z,36.08
2018-01-23T04:29:29.816Z,73.03
2018-01-23T04:31:58.141Z,61.67
2018-01-23T04:34:26.486Z,45.97
2018-01-23T04:36:54.809Z,39.47
2018-01-23T04:39:23.261Z,58.33
2018-01-23T04:41:51.586Z,77.72
2018-01-23T04:44:19.933Z,58.17
2018-01-23T04:46:48.258Z,54.47
2018-01-23T04:49:16.601Z,57.53
2018-01-23T04:51:44.937Z,79.82
2018-01-23T04:54:13.282Z,35.28
2018-01-23T04:56:41.752Z,45.90
2018-01-23T04:59:10.077Z,51.08
2018-01-23T05:01:38.402Z,41.60
2018-01-23T05:04:06.749Z,54.85
2018-01-23T05:06:35.105Z,44.72
2018-01-23T05:09:03.454Z,59.15
2018-01-23T05:11:31.777Z,58.60
2018-01-23T05:14:00.197Z,45.28
2018-01-23T05:16:28.513Z,43.50
2018-01-23T05:18:56.856Z,59.20
2018-01-23T05:21:25.182Z,53.28
2018-01-23T05:23:53.521Z,55.80
2018-01-23T05:26:21.916Z,48.70
2018-01-23T05:28:50.289Z,67.50
2018-01-23T05:31:18.665Z,51.03
2018-01-23T05:33:47.017Z,63.72
2018-01-23T05:36:15.341Z,64.50
2018-01-23T05:38:43.779Z,58.30
2018-01-23T05:41:12.110Z,70.57
2018-01-23T05:43:40.437Z,74.60
2018-01-23T05:46:08.782Z,72.30
2018-01-23T05:48:37.109Z,79.10
2018-01-23T05:51:05.458Z,74.90
2018-01-23T05:53:33.781Z,79.67
2018-01-23T05:56:02.238Z,64.27
2018-01-23T05:58:30.569Z,72.40
2018-01-23T06:00:58.923Z,65.50
2018-01-23T06:03:27.261Z,87.73
2018-01-23T06:05:55.645Z,68.13
2018-01-23T06:08:23.982Z,62.70
2018-01-23T06:10:52.340Z,68.60
2018-01-23T06:13:20.679Z,68.30
2018-01-23T06:15:49.025Z,70.77
2018-01-23T06:18:17.430Z,73.90
2018-01-23T06:20:45.787Z,68.30
2018-01-23T06:23:14.117Z,72.80
2018-01-23T06:25:43.361Z,77.85
2018-01-23T06:28:11.689Z,81.50
2018-01-23T06:30:40.129Z,69.27
2018-01-23T06:33:08.509Z,65.43
2018-01-23T06:35:37.457Z,59.37
2018-01-23T06:38:05.877Z,63.70
2018-01-23T06:40:34.258Z,81.50
2018-01-23T06:43:02.588Z,82.37
2018-01-23T06:45:30.942Z,66.62
2018-01-23T06:47:59.270Z,77.23
2018-01-23T06:50:27.617Z,81.50
2018-01-23T06:52:55.949Z,63.80
2018-01-23T06:55:24.306Z,73.73
2018-01-23T06:57:52.637Z,97.27
2018-01-23T07:00:20.995Z,68.40
2018-01-23T07:02:49.327Z,62.43
2018-01-23T07:05:17.678Z,74.40
2018-01-23T07:07:46.010Z,67.15
2018-01-23T07:10:14.353Z,80.40
2018-01-23T07:12:42.690Z,71.80
2018-01-23T07:15:11.038Z,64.03
2018-01-23T07:17:39.373Z,78.03
2018-01-23T07:20:07.717Z,87.85
2018-01-23T07:22:36.049Z,69.43
2018-01-23T07:25:04.642Z,71.37
2018-01-23T07:27:33.042Z,67.25
2018-01-23T07:30:01.390Z,63.63
2018-01-23T07:32:29.713Z,68.13
2018-01-23T07:34:58.070Z,79.37
2018-01-23T07:37:26.398Z,80.23
2018-01-23T07:39:54.746Z,90.70
2018-01-23T07:42:23.077Z,68.15
2018-01-23T07:44:51.428Z,90.73
2018-01-23T07:47:19.932Z,71.15
2018-01-23T07:49:48.263Z,65.85
2018-01-23T07:52:16.645Z,63.75
2018-01-23T07:54:44.981Z,77.50
2018-01-23T07:57:13.657Z,73.05
2018-01-23T07:59:41.999Z,72.43
2018-01-23T08:02:10.379Z,71.27
2018-01-23T08:04:38.741Z,72.47
2018-01-23T08:07:07.095Z,75.33
2018-01-23T08:09:35.433Z,65.90
2018-01-23T08:12:03.773Z,63.13
2018-01-23T08:14:32.132Z,69.63
2018-01-23T08:17:00.476Z,84.80
2018-01-23T08:19:28.802Z,60.50
2018-01-23T08:21:57.156Z,62.57
2018-01-23T08:24:25.486Z,55.87
2018-01-23T08:26:53.838Z,62.38
2018-01-23T08:29:22.227Z,78.40
2018-01-23T08:31:50.648Z,75.67
2018-01-23T08:34:18.979Z,67.00
2018-01-23T08:36:48.290Z,64.13
2018-01-23T08:39:16.653Z,74.20
2018-01-23T08:41:45.040Z,78.83
2018-01-23T08:44:13.365Z,72.03
2018-01-23T08:46:41.718Z,53.30
2018-01-23T08:49:10.050Z,75.00
2018-01-23T08:51:38.401Z,59.67
2018-01-23T08:54:06.726Z,61.72
2018-01-23T08:56:35.081Z,63.78
2018-01-23T08:59:03.405Z,80.38
2018-01-23T09:01:31.757Z,49.97
2018-01-23T09:04:00.084Z,59.20
2018-01-23T09:06:28.429Z,56.17
2018-01-23T09:08:56.753Z,64.25
2018-01-23T09:11:25.101Z,53.30
2018-01-23T09:13:53.430Z,54.35
2018-01-23T09:16:21.776Z,66.32
2018-01-23T09:18:50.102Z,78.65
2018-01-23T09:21:18.453Z,63.53
2018-01-23T09:23:46.786Z,66.53
2018-01-23T09:26:15.138Z,66.78
2018-01-23T09:28:43.466Z,67.80
2018-01-23T09:31:11.813Z,58.08
2018-01-23T09:33:40.137Z,65.62
2018-01-23T09:36:08.485Z,69.90
2018-01-23T09:38:36.815Z,62.13
2018-01-23T09:41:05.162Z,57.80
2018-01-23T09:43:33.491Z,67.62
2018-01-23T09:46:01.838Z,62.58
2018-01-23T09:48:30.194Z,64.28
2018-01-23T09:50:58.526Z,78.12
2018-01-23T09:53:26.882Z,60.65
2018-01-23T09:55:55.209Z,66.07
2018-01-23T09:58:23.588Z,69.18
2018-01-23T10:00:51.887Z,64.43
2018-01-23T10:03:20.235Z,63.40
2018-01-23T10:05:48.566Z,50.90
2018-01-23T10:08:16.909Z,59.60
2018-01-23T10:10:45.243Z,59.75
2018-01-23T10:13:13.590Z,66.57
2018-01-23T10:15:41.922Z,84.07
2018-01-23T10:18:10.270Z,58.72
2018-01-23T10:20:38.597Z,65.07
2018-01-23T10:23:06.949Z,61.08
2018-01-23T10:25:35.277Z,63.90
2018-01-23T10:28:03.625Z,60.42
2018-01-23T10:30:31.957Z,58.20
2018-01-23T10:33:00.310Z,85.82
2018-01-23T10:35:28.639Z,56.30
2018-01-23T10:37:56.990Z,72.37
2018-01-23T10:40:25.316Z,45.65
2018-01-23T10:42:53.666Z,54.88
2018-01-23T10:45:21.993Z,67.40
2018-01-23T10:47:50.346Z,53.97
2018-01-23T10:50:18.678Z,52.97
2018-01-23T10:52:47.026Z,69.78
2018-01-23T10:55:15.353Z,60.38
2018-01-23T10:57:43.710Z,56.25
2018-01-23T11:00:12.038Z,57.72
2018-01-23T11:02:40.386Z,95.68
2018-01-23T11:05:08.714Z,59.47
2018-01-23T11:07:37.070Z,64.95
2018-01-23T11:10:05.394Z,46.55
2018-01-23T11:12:33.746Z,56.33
2018-01-23T11:15:02.069Z,47.92
2018-01-23T11:17:30.432Z,44.85
2018-01-23T11:19:58.754Z,43.85
2018-01-23T11:22:27.105Z,37.00
2018-01-23T11:24:55.438Z,50.17
2018-01-23T11:27:23.793Z,50.00
2018-01-23T11:29:52.122Z,38.25
2018-01-23T11:32:20.481Z,53.28
2018-01-23T11:34:48.801Z,47.20
2018-01-23T11:37:17.153Z,43.50
2018-01-23T11:39:45.481Z,40.40
2018-01-23T11:42:13.829Z,41.63
2018-01-23T11:44:42.160Z,39.55
2018-01-23T11:47:10.485Z,73.97
2018-01-23T11:49:38.838Z,51.10
2018-01-23T11:52:07.171Z,41.05
2018-01-23T11:54:35.522Z,51.90
2018-01-23T11:57:03.850Z,30.12
2018-01-23T11:59:32.210Z,39.17
2018-01-23T12:02:00.537Z,29.90
2018-01-23T12:04:28.897Z,44.50
2018-01-23T12:06:57.226Z,39.33
2018-01-23T12:09:25.577Z,30.85
2018-01-23T12:11:53.911Z,32.67
2018-01-23T12:14:22.257Z,31.50
2018-01-23T12:16:50.586Z,28.55
2018-01-23T12:19:18.970Z,37.55
2018-01-23T12:21:47.270Z,28.87
2018-01-23T12:24:15.612Z,32.03
2018-01-23T12:26:43.947Z,35.78
2018-01-23T12:29:12.299Z,49.15
2018-01-23T12:31:40.621Z,29.58
2018-01-23T12:34:08.965Z,37.43
2018-01-23T12:36:38.375Z,25.73
2018-01-23T12:39:07.409Z,28.07
2018-01-23T12:41:35.747Z,25.45
2018-01-23T12:44:04.093Z,21.58
2018-01-23T12:46:32.415Z,34.30
2018-01-23T12:49:00.765Z,39.43
2018-01-23T12:51:29.093Z,28.20
2018-01-23T12:53:58.509Z,28.63
2018-01-23T12:56:26.833Z,36.83
2018-01-23T12:58:55.180Z,23.30
2018-01-23T13:01:23.515Z,41.80
2018-01-23T13:03:51.859Z,29.00
2018-01-23T13:06:20.190Z,30.92
2018-01-23T13:08:48.533Z,33.17
2018-01-23T13:11:16.865Z,35.20
2018-01-23T13:13:45.213Z,33.23
2018-01-23T13:16:13.534Z,19.63
2018-01-23T13:18:41.882Z,24.77
2018-01-23T13:21:10.208Z,36.80
2018-01-23T13:23:38.546Z,19.00
2018-01-23T13:26:06.878Z,29.63
2018-01-23T13:28:35.226Z,44.70
2018-01-23T13:31:03.560Z,21.47
2018-01-23T13:33:31.901Z,30.00
2018-01-23T13:36:00.225Z,30.37
2018-01-23T13:38:28.573Z,18.80
2018-01-23T13:40:56.902Z,20.10
2018-01-23T13:43:25.262Z,25.10
2018-01-23T13:45:54.445Z,20.62
2018-01-23T13:48:22.802Z,34.77
2018-01-23T13:50:51.131Z,20.90
2018-01-23T13:53:19.458Z,19.47
2018-01-23T13:55:47.802Z,22.43
2018-01-23T13:58:16.130Z,26.20
2018-01-23T14:00:44.470Z,20.57
2018-01-23T14:03:12.797Z,20.27
2018-01-23T14:05:41.139Z,20.30
2018-01-23T14:08:09.472Z,11.77
2018-01-23T14:10:37.819Z,23.97
2018-01-23T14:13:06.135Z,19.63
2018-01-23T14:15:34.482Z,53.07
2018-01-23T14:18:02.807Z,30.53
2018-01-23T14:20:31.155Z,11.75
2018-01-23T14:22:59.478Z,17.30
2018-01-23T14:25:27.825Z,28.03
2018-01-23T14:27:56.153Z,22.77
2018-01-23T14:30:24.549Z,16.20
2018-01-23T14:32:52.852Z,11.83
2018-01-23T14:35:21.223Z,14.87
2018-01-23T14:37:49.534Z,13.20
2018-01-23T14:40:17.882Z,24.13
2018-01-23T14:42:46.206Z,12.37
2018-01-23T14:45:14.552Z,14.27
2018-01-23T14:47:42.890Z,15.63
2018-01-23T14:50:11.225Z,17.13
2018-01-23T14:52:39.550Z,13.20
2018-01-23T14:55:07.926Z,11.10
2018-01-23T14:57:36.241Z,9.00
2018-01-23T15:00:04.581Z,19.25
2018-01-23T15:02:32.963Z,14.97
2018-01-23T15:05:01.400Z,16.23
2018-01-23T15:07:30.489Z,33.63
2018-01-23T15:09:58.942Z,10.77
2018-01-23T15:12:27.253Z,17.57
2018-01-23T15:14:55.593Z,11.43
2018-01-23T15:17:23.929Z,16.45
2018-01-23T15:19:52.387Z,11.20
2018-01-23T15:22:20.707Z,12.37
2018-01-23T15:24:49.113Z,21.27
2018-01-23T15:27:17.452Z,10.63
2018-01-23T15:29:45.797Z,19.80
2018-01-23T15:32:14.239Z,13.70
2018-01-23T15:34:43.565Z,9.03
2018-01-23T15:37:12.063Z,15.50
2018-01-23T15:39:40.381Z,12.30
2018-01-23T15:42:08.750Z,13.53
2018-01-23T15:44:37.136Z,29.85
2018-01-23T15:47:05.646Z,39.80
2018-01-23T15:49:34.004Z,24.33
2018-01-23T15:52:02.374Z,25.02
2018-01-23T15:54:30.733Z,28.77
2018-01-23T15:56:59.138Z,10.50
2018-01-23T15:59:27.560Z,19.35
2018-01-23T16:01:56.018Z,18.57
2018-01-23T16:04:24.356Z,7.60
2018-01-23T16:06:52.744Z,10.20
2018-01-23T16:09:21.117Z,17.00
2018-01-23T16:11:49.456Z,22.15
2018-01-23T16:14:17.874Z,10.43
2018-01-23T16:16:46.219Z,5.72
2018-01-23T16:19:14.757Z,13.70
2018-01-23T16:21:43.186Z,7.65
2018-01-23T16:24:11.494Z,13.00
2018-01-23T16:26:39.833Z,8.87
2018-01-23T16:29:20.004Z,8.07
2018-01-23T16:31:50.337Z,15.17
2018-01-23T16:34:18.718Z,6.23
2018-01-23T16:36:47.085Z,4.40
2018-01-23T16:39:15.466Z,6.43
2018-01-23T16:41:44.410Z,5.43
2018-01-23T16:44:12.806Z,10.07
2018-01-23T16:46:41.150Z,11.65
2018-01-23T16:49:09.487Z,7.12
2018-01-23T16:51:37.822Z,6.73
2018-01-23T16:54:06.145Z,6.50
2018-01-23T16:56:34.514Z,11.10
2018-01-23T16:59:02.837Z,11.00
2018-01-23T17:01:31.178Z,5.05
2018-01-23T17:03:59.488Z,3.40
2018-01-23T17:06:27.985Z,13.85
2018-01-23T17:08:56.344Z,8.23
2018-01-23T17:11:24.681Z,4.20
2018-01-23T17:13:53.786Z,13.80
2018-01-23T17:16:22.141Z,3.43
2018-01-23T17:18:50.461Z,4.87
2018-01-23T17:21:18.853Z,6.40
2018-01-23T17:23:47.277Z,9.32
2018-01-23T17:26:15.616Z,13.00
2018-01-23T17:28:44.006Z,8.50
2018-01-23T17:31:12.406Z,6.10
2018-01-23T17:33:40.781Z,6.13
2018-01-23T17:36:09.116Z,5.50
2018-01-23T17:38:37.537Z,7.17
2018-01-23T17:41:05.920Z,3.95
2018-01-23T17:43:34.241Z,6.70
2018-01-23T17:46:02.569Z,7.40
2018-01-23T17:48:30.976Z,4.62
2018-01-23T17:50:59.681Z,6.05
2018-01-23T17:53:27.992Z,16.73
2018-01-23T17:55:56.333Z,7.40
2018-01-23T17:58:24.697Z,13.60
2018-01-23T18:00:53.129Z,3.67
2018-01-23T18:03:21.517Z,7.62
2018-01-23T18:05:50.818Z,8.53
2018-01-23T18:08:19.128Z,9.68
2018-01-23T18:10:47.460Z,10.53
2018-01-23T18:13:15.797Z,8.77
2018-01-23T18:15:44.177Z,4.73
2018-01-23T18:18:12.602Z,10.67
2018-01-23T18:20:40.917Z,19.00
2018-01-23T18:23:09.253Z,9.40
2018-01-23T18:25:38.474Z,13.62
2018-01-23T18:28:06.821Z,11.00
2018-01-23T18:30:35.137Z,10.40
2018-01-23T18:33:03.492Z,16.57
2018-01-23T18:35:31.814Z,10.63
2018-01-23T18:38:00.592Z,9.80
2018-01-23T18:40:29.380Z,24.93
2018-01-23T18:42:58.268Z,18.20
2018-01-23T18:45:26.657Z,12.77
2018-01-23T18:47:55.071Z,17.33
2018-01-23T18:50:23.386Z,9.57
2018-01-23T18:52:51.826Z,8.90
2018-01-23T18:55:20.145Z,9.37
2018-01-23T18:57:48.481Z,9.33
2018-01-23T19:00:16.855Z,18.40
2018-01-23T19:02:45.277Z,19.10
2018-01-23T19:05:13.710Z,11.70
2018-01-23T19:07:42.050Z,18.53
2018-01-23T19:10:10.362Z,8.37
2018-01-23T19:12:38.706Z,9.20
2018-01-23T19:15:07.148Z,10.53
2018-01-23T19:17:40.398Z,9.03
2018-01-23T19:20:08.810Z,8.80
2018-01-23T19:22:37.526Z,10.50
2018-01-23T19:25:05.918Z,7.27
2018-01-23T19:27:34.261Z,10.73
2018-01-23T19:30:02.597Z,9.57
2018-01-23T19:32:30.982Z,12.50
2018-01-23T19:34:59.302Z,6.30
2018-01-23T19:37:27.733Z,3.00
2018-01-23T19:39:56.118Z,6.53
2018-01-23T19:42:24.484Z,6.87
2018-01-23T19:44:52.819Z,18.90
2018-01-23T19:47:21.145Z,4.63
2018-01-23T19:49:49.470Z,3.18
2018-01-23T19:52:17.849Z,19.73
2018-01-23T19:54:46.269Z,5.10
2018-01-23T19:57:14.604Z,8.82
2018-01-23T19:59:42.973Z,6.47
2018-01-23T20:02:13.344Z,5.27
2018-01-23T20:04:41.666Z,14.13
2018-01-23T20:07:10.052Z,8.68
2018-01-23T20:09:38.378Z,11.20
2018-01-23T20:12:06.725Z,12.00
2018-01-23T20:14:35.781Z,10.88
2018-01-23T20:17:04.229Z,6.93
2018-01-23T20:19:32.550Z,10.53
2018-01-23T20:22:00.866Z,7.03
2018-01-23T20:24:29.253Z,8.55
2018-01-23T20:26:57.573Z,14.43
2018-01-23T20:29:25.909Z,7.20
2018-01-23T20:31:54.289Z,12.70
2018-01-23T20:34:23.570Z,6.23
2018-01-23T20:36:51.941Z,15.30
2018-01-23T20:39:20.283Z,18.23
2018-01-23T20:41:48.626Z,7.03
2018-01-23T20:44:17.862Z,10.97
2018-01-23T20:46:46.186Z,19.00
2018-01-23T20:49:14.565Z,12.80
2018-01-23T20:51:42.922Z,6.57
2018-01-23T20:54:11.250Z,11.80
2018-01-23T20:56:39.570Z,6.50
2018-01-23T20:59:07.973Z,11.50
2018-01-23T21:01:36.285Z,5.18
2018-01-23T21:04:04.621Z,4.80
2018-01-23T21:06:32.978Z,9.10
2018-01-23T21:09:01.330Z,11.12
2018-01-23T21:11:29.667Z,30.00
2018-01-23T21:13:58.134Z,10.47
2018-01-23T21:16:26.504Z,7.30
2018-01-23T21:18:54.886Z,7.33
2018-01-23T21:21:23.201Z,4.97
2018-01-23T21:23:51.540Z,19.10
2018-01-23T21:26:19.915Z,11.40
2018-01-23T21:28:48.289Z,9.80
2018-01-23T21:31:18.002Z,9.87
2018-01-23T21:33:46.342Z,7.40
2018-01-23T21:36:14.737Z,5.30
2018-01-23T21:38:43.082Z,10.43
2018-01-23T21:41:11.558Z,6.83
2018-01-23T21:43:39.948Z,8.20
2018-01-23T21:46:08.238Z,9.70
2018-01-23T21:48:36.585Z,12.98
2018-01-23T21:51:05.249Z,10.40
2018-01-23T21:53:33.594Z,11.70
2018-01-23T21:56:01.918Z,10.40
2018-01-23T21:58:30.264Z,10.33
2018-01-23T22:00:58.633Z,16.48
2018-01-23T22:03:26.963Z,15.37
2018-01-23T22:05:55.281Z,12.30
2018-01-23T22:08:24.542Z,10.13
2018-01-23T22:10:52.853Z,9.67
2018-01-23T22:13:21.193Z,10.93
2018-01-23T22:15:49.525Z,13.93
2018-01-23T22:18:17.870Z,15.13
2018-01-23T22:20:46.197Z,12.50
2018-01-23T22:23:14.554Z,8.05
2018-01-23T22:25:43.769Z,19.20
2018-01-23T22:28:12.241Z,9.65
2018-01-23T22:30:40.577Z,23.57
2018-01-23T22:33:08.901Z,11.57
2018-01-23T22:35:37.254Z,8.98
2018-01-23T22:38:05.575Z,11.90
2018-01-23T22:40:33.918Z,15.27
2018-01-23T22:43:02.241Z,12.50
2018-01-23T22:45:30.573Z,9.25
2018-01-23T22:47:58.893Z,8.85
2018-01-23T22:50:27.233Z,10.15
2018-01-23T22:52:55.554Z,13.55
2018-01-23T22:55:23.892Z,13.38
2018-01-23T22:57:52.208Z,8.45
2018-01-23T23:00:20.557Z,11.70
2018-01-23T23:02:48.878Z,24.33
2018-01-23T23:05:17.214Z,9.27
2018-01-23T23:07:45.542Z,14.90
2018-01-23T23:10:13.881Z,14.95
2018-01-23T23:12:42.205Z,12.20
2018-01-23T23:15:10.549Z,12.70
2018-01-23T23:17:38.874Z,10.23
2018-01-23T23:20:07.216Z,6.57
2018-01-23T23:22:35.525Z,12.35
2018-01-23T23:25:03.865Z,13.43
2018-01-23T23:27:32.185Z,5.00
2018-01-23T23:30:00.525Z,10.32
2018-01-23T23:32:28.843Z,8.40
2018-01-23T23:34:57.173Z,8.00
2018-01-23T23:37:25.495Z,9.85
2018-01-23T23:39:53.833Z,5.20
2018-01-23T23:42:22.149Z,6.15
2018-01-23T23:44:50.485Z,15.00
2018-01-23T23:47:18.805Z,9.20
2018-01-23T23:49:47.149Z,11.75
2018-01-23T23:52:15.473Z,10.55
2018-01-23T23:54:43.813Z,12.45
2018-01-23T23:57:12.135Z,9.18
2018-01-23T23:59:40.518Z,11.88
